Time;durP1;ratioP1;P1;durP2;ratioP2;P2;SDS_P1;SDS_P2;PMS_P1;PMS_P2;Temp;Humidity;BMP_temperature;BMP_pressure;BME280_temperature;BME280_humidity;BME280_pressure;Samples;Min_cycle;Max_cycle;Signal;HPM_P1;HPM_P2
2022/04/20 00:01:55;;;;;;;3.47;2.77;;;;;;;11.71;39.75;98725.22;4183327;28;20661;-29
2022/04/20 00:03:56;;;;;;;6.83;2.87;;;;;;;11.99;38.97;98702.31;4182613;28;21331;-31
2022/04/20 00:05:58;;;;;;;5.77;2.60;;;;;;;12.31;38.96;98673.44;4191302;28;20666;-30
2022/04/20 00:08:00;;;;;;;4.77;2.80;;;;;;;12.24;38.80;98673.38;4183137;28;20235;-30
2022/04/20 00:10:02;;;;;;;3.20;2.60;;;;;;;11.64;39.93;98668.41;4173570;28;20306;-30
2022/04/20 00:12:05;;;;;;;4.93;2.80;;;;;;;12.46;38.64;98652.78;4194119;28;20304;-30
2022/04/20 00:14:06;;;;;;;4.37;2.73;;;;;;;11.62;40.00;98678.44;4194131;28;20231;-30
2022/04/20 00:16:08;;;;;;;4.63;2.50;;;;;;;10.94;40.73;98723.22;4185077;28;20670;-30
2022/04/20 00:18:10;;;;;;;3.43;2.50;;;;;;;11.56;39.70;98681.88;4194427;28;20257;-30
2022/04/20 00:20:12;;;;;;;2.60;2.40;;;;;;;12.03;39.18;98669.78;4185862;28;20297;-30
2022/04/20 00:22:13;;;;;;;3.73;3.03;;;;;;;11.68;39.69;98669.69;4190842;28;20228;-29
2022/04/20 00:24:15;;;;;;;2.80;2.40;;;;;;;11.77;39.34;98675.69;4185684;28;20915;-29
2022/04/20 00:26:17;;;;;;;3.57;2.70;;;;;;;11.49;39.41;98688.97;4185653;28;20239;-29
2022/04/20 00:28:19;;;;;;;7.73;3.07;;;;;;;11.98;38.80;98656.19;4184377;28;20281;-30
2022/04/20 00:30:20;;;;;;;3.33;2.80;;;;;;;11.44;39.43;98681.56;4185213;28;20227;-30
2022/04/20 00:32:22;;;;;;;3.93;3.20;;;;;;;11.63;39.53;98665.94;4194028;28;20227;-30
2022/04/20 00:34:24;;;;;;;4.90;2.53;;;;;;;11.24;39.90;98693.84;4184798;28;20219;-29
2022/04/20 00:36:26;;;;;;;2.77;2.57;;;;;;;11.77;39.42;98650.91;4175809;28;20293;-29
2022/04/20 00:38:28;;;;;;;6.80;2.57;;;;;;;10.77;40.68;98706.63;4193880;28;20231;-30
2022/04/20 00:40:30;;;;;;;6.37;2.80;;;;;;;11.57;39.69;98659.56;4193892;28;20227;-30
2022/04/20 00:42:32;;;;;;;3.70;2.60;;;;;;;11.27;39.94;98688.97;4187824;28;20731;-30
2022/04/20 00:44:34;;;;;;;3.20;2.80;;;;;;;11.88;39.28;98651.22;4190816;28;20227;-30
2022/04/20 00:46:37;;;;;;;4.70;2.57;;;;;;;11.49;39.53;98657.03;4193852;28;20896;-30
2022/04/20 00:48:40;;;;;;;3.00;2.70;;;;;;;11.68;39.64;98671.53;4187478;28;20712;-30
2022/04/20 00:50:42;;;;;;;4.30;3.10;;;;;;;11.39;39.79;98670.66;4174940;28;20237;-30
2022/04/20 00:52:44;;;;;;;4.33;2.70;;;;;;;11.59;39.86;98660.19;4194279;28;20270;-30
2022/04/20 00:55:04;;;;;;;3.40;2.50;;;;;;;11.08;40.62;98668.31;4178517;28;20329;-29
2022/04/20 00:57:06;;;;;;;3.80;2.63;;;;;;;11.44;39.61;98694.03;4194559;28;20285;-29
2022/04/20 00:59:08;;;;;;;3.83;2.70;;;;;;;11.16;40.24;98669.00;4194001;28;20719;-29
2022/04/20 01:01:10;;;;;;;4.63;2.80;;;;;;;11.15;40.36;98656.72;4193591;28;20243;-29
2022/04/20 01:03:12;;;;;;;3.27;2.53;;;;;;;10.96;40.88;98660.81;4185414;28;20244;-31
2022/04/20 01:05:13;;;;;;;3.67;2.70;;;;;;;10.76;41.21;98651.81;4193505;28;20292;-31
2022/04/20 01:07:16;;;;;;;4.90;2.77;;;;;;;11.32;40.22;98659.94;4175120;28;20239;-30
2022/04/20 01:09:18;;;;;;;3.73;2.77;;;;;;;11.43;40.26;98649.81;4193194;28;20231;-31
2022/04/20 01:11:20;;;;;;;6.00;2.53;;;;;;;11.64;40.03;98648.97;4193241;28;20227;-31
2022/04/20 01:13:22;;;;;;;4.27;3.00;;;;;;;10.81;41.60;98660.84;4174608;28;20228;-31
2022/04/20 01:15:23;;;;;;;4.20;2.77;;;;;;;11.61;39.76;98636.88;4189265;28;20335;-29
2022/04/20 01:17:25;;;;;;;4.73;2.73;;;;;;;11.62;40.00;98637.69;4189687;28;20268;-31
2022/04/20 01:19:34;;;;;;;2.63;2.43;;;;;;;10.96;40.46;98683.94;4189397;28;20996;-31
2022/04/20 01:21:36;;;;;;;4.17;2.70;;;;;;;10.87;40.85;98677.06;4183537;28;20222;-30
2022/04/20 01:23:38;;;;;;;5.03;2.80;;;;;;;11.01;40.95;98638.16;4186674;28;20277;-29
2022/04/20 01:25:40;;;;;;;5.20;2.43;;;;;;;10.78;41.19;98660.41;4190450;28;20769;-30
2022/04/20 01:27:42;;;;;;;3.47;2.60;;;;;;;10.73;41.15;98644.16;4193105;28;20242;-31
2022/04/20 01:29:46;;;;;;;2.90;2.50;;;;;;;10.87;40.98;98640.69;4186526;28;20235;-30
2022/04/20 01:31:48;;;;;;;3.37;2.90;;;;;;;10.83;40.75;98658.00;4187756;28;20647;-30
2022/04/20 01:33:50;;;;;;;3.43;2.90;;;;;;;10.81;40.95;98647.56;4180825;28;20861;-29
2022/04/20 01:35:52;;;;;;;4.13;3.03;;;;;;;10.56;41.40;98660.31;4184711;28;20236;-31
2022/04/20 01:37:53;;;;;;;3.27;2.73;;;;;;;10.47;41.50;98645.50;4184009;28;20231;-31
2022/04/20 01:39:56;;;;;;;3.50;2.70;;;;;;;10.76;41.40;98628.69;4189031;28;20235;-29
2022/04/20 01:41:57;;;;;;;3.90;2.70;;;;;;;10.57;41.97;98630.09;4182781;28;20696;-30
2022/04/20 01:43:59;;;;;;;3.70;2.80;;;;;;;10.03;41.98;98664.94;4189328;28;20257;-31
2022/04/20 01:46:01;;;;;;;5.80;3.07;;;;;;;10.76;41.22;98630.53;4192544;28;20239;-30
2022/04/20 01:48:03;;;;;;;3.00;2.70;;;;;;;9.38;42.89;98690.19;4186736;28;20235;-30
2022/04/20 01:50:06;;;;;;;5.30;3.07;;;;;;;10.48;41.95;98635.69;4180467;28;20284;-31
2022/04/20 01:52:08;;;;;;;4.97;3.00;;;;;;;10.24;41.77;98662.38;4184285;28;20265;-30
2022/04/20 01:54:11;;;;;;;4.80;3.13;;;;;;;10.34;42.18;98619.56;4186479;28;20235;-30
2022/04/20 01:56:12;;;;;;;4.00;2.57;;;;;;;10.41;42.03;98632.94;4189062;28;20235;-31
2022/04/20 01:58:14;;;;;;;4.90;2.87;;;;;;;10.28;42.25;98616.84;4186926;28;20238;-30
2022/04/20 02:00:19;;;;;;;5.83;3.00;;;;;;;10.37;42.18;98621.06;4184515;28;20239;-30
2022/04/20 02:02:37;;;;;;;4.57;2.50;;;;;;;10.23;42.28;98641.31;4192220;28;20231;-30
2022/04/20 02:04:39;;;;;;;6.23;2.87;;;;;;;10.32;42.03;98648.16;4185872;28;20839;-29
2022/04/20 02:06:41;;;;;;;3.43;3.13;;;;;;;10.23;42.54;98636.00;4200214;28;20235;-30
2022/04/20 02:08:42;;;;;;;3.30;2.67;;;;;;;10.05;42.40;98637.19;4195692;28;20321;-30
2022/04/20 02:10:45;;;;;;;4.57;2.90;;;;;;;9.84;43.00;98621.97;4176060;28;20236;-30
2022/04/20 02:12:46;;;;;;;3.17;2.73;;;;;;;10.29;42.13;98618.50;4167508;28;20231;-30
2022/04/20 02:14:48;;;;;;;4.10;2.80;;;;;;;10.48;42.00;98617.94;4175559;28;20316;-31
2022/04/20 02:16:50;;;;;;;2.93;2.70;;;;;;;10.16;42.87;98606.69;4176051;28;20248;-29
2022/04/20 02:18:52;;;;;;;3.73;2.77;;;;;;;9.68;43.39;98644.19;4174827;28;20336;-31
2022/04/20 02:20:53;;;;;;;3.77;2.93;;;;;;;10.49;42.44;98598.28;4175254;28;20236;-31
2022/04/20 02:22:55;;;;;;;4.03;3.00;;;;;;;10.18;43.25;98588.72;4175337;28;20659;-29
2022/04/20 02:24:59;;;;;;;5.70;3.17;;;;;;;9.81;43.75;98621.53;4175779;28;20236;-32
2022/04/20 02:27:01;;;;;;;3.97;3.03;;;;;;;9.63;44.17;98614.72;4167471;28;20658;-30
2022/04/20 02:29:03;;;;;;;3.53;3.17;;;;;;;9.23;44.99;98608.72;4176050;28;20309;-30
2022/04/20 02:31:04;;;;;;;4.73;3.47;;;;;;;8.92;45.47;98604.31;4175673;28;20236;-31
2022/04/20 02:33:06;;;;;;;5.40;3.10;;;;;;;9.37;44.65;98608.94;4174494;28;20233;-29
2022/04/20 02:35:08;;;;;;;3.77;3.10;;;;;;;9.40;44.72;98595.31;4172342;28;21080;-30
2022/04/20 02:37:10;;;;;;;4.67;2.93;;;;;;;8.92;45.35;98643.25;4167620;28;20277;-31
2022/04/20 02:39:11;;;;;;;4.77;3.23;;;;;;;8.76;46.25;98599.13;4168750;28;20234;-31
2022/04/20 02:41:14;;;;;;;4.50;3.20;;;;;;;8.72;46.23;98614.53;4179539;28;20248;-30
2022/04/20 02:43:17;;;;;;;3.70;3.30;;;;;;;9.29;45.44;98580.69;4175029;28;20270;-31
2022/04/20 02:45:19;;;;;;;4.07;2.93;;;;;;;8.02;47.35;98644.47;4175187;28;20282;-30
2022/04/20 02:47:21;;;;;;;3.73;3.30;;;;;;;8.44;47.51;98581.59;4175812;28;20246;-30
2022/04/20 02:49:23;;;;;;;3.80;3.43;;;;;;;8.00;48.11;98618.16;4167245;28;20708;-30
2022/04/20 02:51:25;;;;;;;4.60;2.90;;;;;;;8.33;48.02;98564.28;4170500;28;20294;-29
2022/04/20 02:53:27;;;;;;;4.03;3.10;;;;;;;7.62;48.96;98602.03;4171437;28;20293;-31
2022/04/20 02:55:29;;;;;;;4.03;3.10;;;;;;;7.96;48.37;98581.59;4175261;28;20236;-32
2022/04/20 02:57:30;;;;;;;4.00;3.27;;;;;;;8.29;48.14;98568.22;4175134;28;20285;-32
2022/04/20 02:59:32;;;;;;;4.83;3.30;;;;;;;8.08;49.11;98558.22;4175538;28;20674;-31
2022/04/20 03:01:34;;;;;;;3.60;3.10;;;;;;;7.83;48.61;98605.94;4161942;28;20224;-32
2022/04/20 03:03:36;;;;;;;3.57;3.27;;;;;;;7.98;48.61;98596.31;4172446;28;20224;-32
2022/04/20 03:05:38;;;;;;;4.60;3.20;;;;;;;8.70;47.93;98545.00;4174519;28;20222;-32
2022/04/20 03:07:40;;;;;;;4.40;3.30;;;;;;;7.41;50.43;98575.28;4175234;28;20224;-32
2022/04/20 03:09:42;;;;;;;4.23;3.60;;;;;;;8.10;49.23;98553.59;4164563;28;20294;-31
2022/04/20 03:11:43;;;;;;;6.47;4.33;;;;;;;7.17;50.72;98599.91;4173085;28;20227;-31
2022/04/20 03:13:46;;;;;;;4.60;3.70;;;;;;;8.16;48.80;98611.16;4175258;28;20313;-32
2022/04/20 03:15:48;;;;;;;4.33;3.50;;;;;;;8.30;49.08;98554.81;4168954;28;20328;-32
2022/04/20 03:17:50;;;;;;;4.17;3.53;;;;;;;7.71;49.83;98609.94;4166251;28;20235;-30
2022/04/20 03:19:51;;;;;;;4.43;3.70;;;;;;;8.67;47.99;98574.50;4163813;28;20256;-32
2022/04/20 03:21:53;;;;;;;4.00;3.60;;;;;;;8.72;48.33;98566.03;4175131;28;20863;-32
2022/04/20 03:23:55;;;;;;;4.47;3.27;;;;;;;7.84;49.92;98594.38;4167214;28;20243;-32
2022/04/20 03:25:56;;;;;;;4.53;3.73;;;;;;;7.30;51.39;98600.25;4175037;28;20266;-32
2022/04/20 03:27:58;;;;;;;4.27;3.60;;;;;;;7.22;51.47;98602.88;4175089;28;20289;-32
2022/04/20 03:30:00;;;;;;;4.30;3.47;;;;;;;7.25;51.52;98619.25;4174705;28;21057;-32
2022/04/20 03:32:15;;;;;;;5.63;4.03;;;;;;;7.52;51.70;98569.63;4174206;28;20236;-32
2022/04/20 03:34:17;;;;;;;5.57;3.70;;;;;;;7.97;50.14;98602.63;4165681;28;20236;-33
2022/04/20 03:36:18;;;;;;;11.53;3.57;;;;;;;8.40;49.64;98544.84;4174243;28;20235;-32
2022/04/20 03:38:21;;;;;;;5.63;3.60;;;;;;;7.63;50.83;98608.97;4169189;28;20235;-33
2022/04/20 03:40:23;;;;;;;6.60;3.53;;;;;;;8.30;50.20;98562.75;4166676;28;20294;-32
2022/04/20 03:42:25;;;;;;;4.57;3.37;;;;;;;8.36;49.79;98559.44;4179870;28;20292;-31
2022/04/20 03:44:27;;;;;;;8.33;4.20;;;;;;;7.57;50.90;98636.09;4184395;28;20250;-32
2022/04/20 03:46:29;;;;;;;3.80;3.40;;;;;;;8.18;50.67;98564.13;4185633;28;20232;-32
2022/04/20 03:48:31;;;;;;;5.47;3.50;;;;;;;8.21;49.72;98598.22;4189235;28;20227;-31
2022/04/20 03:50:32;;;;;;;5.67;3.83;;;;;;;7.83;51.05;98585.63;4185215;28;20725;-33
2022/04/20 03:52:37;;;;;;;4.87;3.57;;;;;;;7.28;52.18;98587.19;4171020;28;20228;-32
2022/04/20 03:54:39;;;;;;;3.90;3.50;;;;;;;8.87;48.95;98560.78;4185960;28;20257;-30
2022/04/20 03:59:01;;;;;;;5.30;3.70;;;;;;;8.02;50.62;98589.69;4192676;28;20291;-31
2022/04/20 04:01:03;;;;;;;4.50;3.50;;;;;;;7.96;50.58;98618.66;4193730;28;20234;-31
2022/04/20 04:03:05;;;;;;;4.37;3.63;;;;;;;8.88;48.72;98567.72;4194354;28;20716;-32
2022/04/20 04:05:07;;;;;;;7.13;3.70;;;;;;;8.58;49.03;98604.72;4194409;28;20235;-32
2022/04/20 04:07:09;;;;;;;6.00;3.60;;;;;;;7.63;50.63;98653.97;4191692;28;20247;-31
2022/04/20 04:09:11;;;;;;;4.80;3.80;;;;;;;8.58;49.49;98594.09;4170165;28;20892;-32
2022/04/20 04:11:13;;;;;;;4.70;3.70;;;;;;;8.03;50.18;98624.91;4183385;28;20244;-32
2022/04/20 04:13:15;;;;;;;5.30;4.23;;;;;;;8.49;49.92;98568.66;4186495;28;20235;-31
2022/04/20 04:15:16;;;;;;;15.67;4.50;;;;;;;8.43;49.61;98617.84;4194029;28;20718;-33
2022/04/20 04:17:18;;;;;;;4.70;3.93;;;;;;;7.82;50.35;98628.94;4185869;28;20223;-32
2022/04/20 04:19:20;;;;;;;4.73;3.80;;;;;;;8.05;50.25;98606.22;4189604;28;20305;-32
2022/04/20 04:21:22;;;;;;;4.77;3.53;;;;;;;7.99;50.69;98590.03;4189824;28;20283;-31
2022/04/20 04:23:23;;;;;;;5.43;4.30;;;;;;;8.45;49.74;98575.31;4185310;28;20777;-33
2022/04/20 04:25:25;;;;;;;4.97;3.50;;;;;;;7.37;52.22;98609.16;4187535;28;20749;-32
2022/04/20 04:27:27;;;;;;;5.03;4.00;;;;;;;7.89;51.59;98556.81;4185981;28;20773;-33
2022/04/20 04:29:31;;;;;;;4.33;3.70;;;;;;;8.05;50.36;98598.28;4184557;28;20240;-32
2022/04/20 04:31:34;;;;;;;4.80;3.83;;;;;;;7.77;50.73;98635.75;4190734;28;20280;-32
2022/04/20 04:33:36;;;;;;;5.07;4.10;;;;;;;7.17;52.27;98650.97;4187809;28;20228;-31
2022/04/20 04:35:38;;;;;;;4.57;3.90;;;;;;;7.98;50.81;98617.47;4173892;28;20258;-32
2022/04/20 04:37:40;;;;;;;4.83;3.73;;;;;;;7.33;52.48;98626.38;4187165;28;20579;-33
2022/04/20 04:39:41;;;;;;;4.63;4.13;;;;;;;7.68;52.38;98570.59;4191652;28;20268;-32
2022/04/20 04:41:46;;;;;;;5.10;4.60;;;;;;;8.17;50.98;98596.91;4188388;28;20296;-32
2022/04/20 04:43:47;;;;;;;4.60;4.13;;;;;;;8.34;50.07;98609.13;4182137;28;20288;-32
2022/04/20 04:50:30;;;;;;;5.17;4.27;;;;;;;8.53;49.83;98633.53;4189850;28;20659;-32
2022/04/20 04:52:32;;;;;;;4.60;4.07;;;;;;;8.16;50.89;98590.78;4193102;28;20277;-32
2022/04/20 04:54:35;;;;;;;8.50;4.80;;;;;;;8.30;50.47;98597.19;4187827;28;20262;-32
2022/04/20 04:56:36;;;;;;;5.97;4.00;;;;;;;8.34;50.65;98602.97;4190560;28;20242;-32
2022/04/20 04:58:38;;;;;;;4.57;3.73;;;;;;;8.37;50.62;98584.94;4193763;28;20708;-32
2022/04/20 05:00:40;;;;;;;4.40;3.80;;;;;;;8.60;50.05;98602.69;4193614;28;20236;-30
2022/04/20 05:02:41;;;;;;;5.47;4.03;;;;;;;9.16;48.97;98585.75;4192980;28;20286;-30
2022/04/20 05:04:43;;;;;;;8.20;4.00;;;;;;;8.54;50.27;98614.84;4193411;28;22039;-30
2022/04/20 05:06:45;;;;;;;5.73;4.23;;;;;;;8.56;49.97;98627.91;4193564;28;20296;-29
2022/04/20 05:08:47;;;;;;;5.60;4.33;;;;;;;8.25;50.98;98599.53;4192949;28;20238;-31
2022/04/20 05:10:48;;;;;;;5.27;4.50;;;;;;;8.79;49.74;98604.06;4193480;28;20720;-31
2022/04/20 05:12:50;;;;;;;8.40;4.10;;;;;;;8.65;49.85;98632.16;4184815;28;20238;-31
2022/04/20 05:14:52;;;;;;;6.77;4.70;;;;;;;8.11;51.31;98626.72;4193190;28;20246;-32
2022/04/20 05:16:56;;;;;;;5.80;4.70;;;;;;;8.55;50.25;98615.66;4176990;28;20251;-32
2022/04/20 05:18:57;;;;;;;5.70;4.20;;;;;;;8.79;49.61;98619.97;4193304;28;20306;-32
2022/04/20 05:20:59;;;;;;;5.87;4.10;;;;;;;8.71;50.21;98604.97;4192708;28;20238;-32
2022/04/20 05:23:01;;;;;;;6.23;4.10;;;;;;;8.62;50.57;98623.72;4184742;28;20261;-32
2022/04/20 05:25:03;;;;;;;4.83;4.07;;;;;;;8.03;51.96;98631.03;4192243;28;20999;-31
2022/04/20 05:27:05;;;;;;;8.23;4.40;;;;;;;8.39;51.00;98617.38;4185805;28;20281;-32
2022/04/20 05:29:07;;;;;;;5.60;4.00;;;;;;;8.05;51.24;98683.81;4193314;28;20239;-32
2022/04/20 05:31:08;;;;;;;6.03;4.50;;;;;;;8.92;50.38;98601.66;4193296;28;20235;-31
2022/04/20 05:33:12;;;;;;;8.93;4.37;;;;;;;8.27;51.14;98642.56;4192540;28;20287;-31
2022/04/20 05:35:14;;;;;;;6.37;3.80;;;;;;;8.42;50.62;98669.16;4192945;28;20323;-33
2022/04/20 05:41:56;;;;;;;5.37;4.20;;;;;;;8.90;50.46;98627.53;4181624;28;20231;-32
2022/04/20 05:43:59;;;;;;;6.90;4.27;;;;;;;8.90;50.76;98640.78;4189765;28;20231;-32
2022/04/20 05:46:01;;;;;;;6.20;3.83;;;;;;;8.65;50.73;98658.66;4184911;28;20261;-31
2022/04/20 05:48:04;;;;;;;6.70;4.17;;;;;;;8.70;50.98;98631.63;4185177;28;20255;-31
2022/04/20 05:50:06;;;;;;;6.07;4.00;;;;;;;9.29;50.83;98631.88;4186420;28;20711;-32
2022/04/20 05:52:08;;;;;;;7.60;3.50;;;;;;;9.65;48.94;98620.66;4192409;28;20232;-32
2022/04/20 05:54:10;;;;;;;4.20;3.77;;;;;;;9.64;49.27;98632.28;4192574;28;20231;-32
2022/04/20 05:56:12;;;;;;;6.57;3.80;;;;;;;9.58;49.47;98625.00;4189882;28;20239;-32
2022/04/20 05:58:13;;;;;;;3.93;3.50;;;;;;;9.52;49.53;98623.91;4186969;28;20243;-32
2022/04/20 06:00:16;;;;;;;4.83;3.57;;;;;;;9.11;49.90;98669.31;4190739;28;20257;-32
2022/04/20 06:02:17;;;;;;;5.00;4.10;;;;;;;9.08;50.21;98663.53;4183792;28;20224;-31
2022/04/20 06:04:19;;;;;;;5.77;4.10;;;;;;;9.03;49.87;98693.25;4183140;28;20590;-32
2022/04/20 06:06:21;;;;;;;7.57;4.20;;;;;;;8.58;51.20;98682.38;4187726;28;20654;-32
2022/04/20 06:08:23;;;;;;;5.93;3.60;;;;;;;8.76;50.20;98654.78;4187408;28;20326;-32
2022/04/20 06:10:24;;;;;;;4.97;4.00;;;;;;;8.30;51.32;98684.56;4191424;28;20227;-31
2022/04/20 06:12:26;;;;;;;5.73;3.93;;;;;;;8.13;52.01;98712.94;4190917;28;20227;-32
2022/04/20 06:14:28;;;;;;;5.70;4.00;;;;;;;8.16;52.52;98632.34;4190572;28;20227;-32
2022/04/20 06:16:30;;;;;;;5.13;3.87;;;;;;;9.29;50.10;98634.53;4191160;28;20712;-32
2022/04/20 06:18:36;;;;;;;8.37;3.77;;;;;;;9.29;50.17;98617.81;4191633;28;20305;-32
2022/04/20 06:20:40;;;;;;;4.07;3.30;;;;;;;9.40;49.05;98628.00;4190186;28;20281;-31
2022/04/20 06:22:42;;;;;;;5.97;4.03;;;;;;;8.87;50.87;98666.81;4187185;28;20231;-31
2022/04/20 06:24:43;;;;;;;5.90;3.83;;;;;;;8.50;51.26;98685.03;4190540;28;20277;-32
2022/04/20 06:26:45;;;;;;;3.87;3.47;;;;;;;8.55;52.23;98650.09;4190639;28;20751;-31
2022/04/20 06:28:47;;;;;;;4.73;3.57;;;;;;;8.16;52.50;98635.00;4190309;28;20239;-32
2022/04/20 06:30:48;;;;;;;5.00;3.50;;;;;;;8.43;51.84;98631.09;4190620;28;20297;-32
2022/04/20 06:32:50;;;;;;;5.87;3.90;;;;;;;8.41;51.00;98656.94;4183430;28;20219;-32
2022/04/20 06:34:52;;;;;;;6.00;3.57;;;;;;;9.01;49.66;98655.44;4181748;28;20726;-32
2022/04/20 06:36:55;;;;;;;4.50;3.93;;;;;;;9.39;49.23;98666.13;4187517;28;20235;-31
2022/04/20 06:38:56;;;;;;;5.00;3.60;;;;;;;9.11;49.90;98626.88;4167120;28;20227;-31
2022/04/20 06:40:58;;;;;;;6.23;3.80;;;;;;;9.51;49.12;98638.16;4183637;28;20276;-31
2022/04/20 06:43:05;;;;;;;6.60;3.60;;;;;;;8.48;51.62;98687.03;4186730;28;20581;-31
2022/04/20 06:45:07;;;;;;;4.10;3.50;;;;;;;9.03;50.08;98645.53;4191531;28;20226;-30
2022/04/20 06:47:09;;;;;;;4.00;3.60;;;;;;;9.03;50.48;98669.38;4166721;28;20289;-29
2022/04/20 06:49:12;;;;;;;5.47;3.60;;;;;;;8.56;51.31;98657.06;4183794;28;20292;-31
2022/04/20 06:51:13;;;;;;;6.50;3.60;;;;;;;8.91;50.25;98710.53;4187827;28;20227;-31
2022/04/20 07:00:16;;;;;;;6.23;3.90;;;;;;;9.45;50.21;98656.63;4184991;28;20227;-31
2022/04/20 07:02:18;;;;;;;5.30;3.67;;;;;;;10.04;48.46;98635.53;4187497;28;20231;-30
2022/04/20 07:04:20;;;;;;;4.57;3.53;;;;;;;10.18;48.36;98625.91;4164803;28;20291;-30
2022/04/20 07:06:22;;;;;;;4.60;3.40;;;;;;;10.02;48.28;98673.91;4171170;28;20275;-31
2022/04/20 07:08:25;;;;;;;5.53;3.83;;;;;;;10.11;48.21;98648.06;4172797;28;20223;-31
2022/04/20 07:10:27;;;;;;;4.47;3.40;;;;;;;9.77;48.76;98655.53;4191941;28;20224;-31
2022/04/20 07:12:29;;;;;;;4.80;3.97;;;;;;;9.72;48.47;98675.69;4188739;28;20228;-31
2022/04/20 07:14:31;;;;;;;5.03;3.83;;;;;;;9.28;49.40;98714.28;4175265;28;20281;-30
2022/04/20 07:16:33;;;;;;;6.17;3.67;;;;;;;8.95;49.71;98675.56;4175204;28;20257;-31
2022/04/20 07:18:34;;;;;;;4.80;3.57;;;;;;;10.26;47.89;98619.66;4175190;28;20224;-31
2022/04/20 07:20:36;;;;;;;4.90;3.97;;;;;;;8.99;49.17;98688.47;4178690;28;20437;-31
2022/04/20 07:22:38;;;;;;;4.07;3.37;;;;;;;9.24;49.03;98729.75;4177470;28;20231;-30
2022/04/20 07:24:40;;;;;;;5.10;3.87;;;;;;;10.07;47.79;98634.34;4177949;28;20598;-31
2022/04/20 07:26:42;;;;;;;6.67;3.83;;;;;;;8.69;50.29;98738.63;4178562;28;20235;-31
2022/04/20 07:28:43;;;;;;;3.97;3.13;;;;;;;10.13;48.42;98638.94;4178861;28;20288;-30
2022/04/20 07:30:45;;;;;;;4.97;3.50;;;;;;;9.72;50.00;98708.34;4178115;28;20235;-31
2022/04/20 07:32:48;;;;;;;4.33;3.50;;;;;;;10.38;48.45;98633.31;4177875;28;20239;-30
2022/04/20 07:34:51;;;;;;;5.67;3.50;;;;;;;10.87;47.49;98595.47;4178451;28;20250;-29
2022/04/20 07:36:53;;;;;;;5.37;3.50;;;;;;;10.99;46.94;98598.47;4186010;28;20251;-30
2022/04/20 07:38:54;;;;;;;4.23;3.60;;;;;;;10.59;48.68;98672.44;4179232;28;20590;-30
2022/04/20 07:40:56;;;;;;;4.23;3.50;;;;;;;11.21;47.02;98595.75;4189574;28;20820;-30
2022/04/20 07:42:58;;;;;;;4.63;3.40;;;;;;;11.28;47.77;98599.34;4180744;28;20836;-30
2022/04/20 07:45:00;;;;;;;5.90;3.80;;;;;;;11.68;46.82;98576.50;4194944;28;20300;-30
2022/04/20 07:47:01;;;;;;;4.67;2.77;;;;;;;10.34;48.07;98722.38;4193705;28;20246;-30
2022/04/20 07:50:18;;;;;;;4.00;3.40;;;;;;;9.79;47.73;98745.63;4163046;28;20302;-30
2022/04/20 07:51:25;;;;;;;5.93;3.33;;;;;;;10.13;48.62;98752.34;4194831;28;20285;-32
2022/04/20 07:53:27;;;;;;;4.50;3.30;;;;;;;10.69;47.66;98685.44;4176779;28;20227;-32
2022/04/20 07:55:31;;;;;;;3.90;3.33;;;;;;;10.64;47.48;98725.88;4193711;28;20235;-32
2022/04/20 07:57:33;;;;;;;3.50;3.20;;;;;;;11.13;46.46;98641.97;4186397;28;20227;-32
2022/04/20 07:59:35;;;;;;;4.07;3.10;;;;;;;11.25;46.04;98628.97;4189252;28;20250;-31
2022/04/20 08:01:36;;;;;;;4.40;3.10;;;;;;;10.72;46.17;98711.66;4185946;28;20224;-31
2022/04/20 08:03:38;;;;;;;5.70;3.10;;;;;;;11.48;45.64;98618.13;4191722;28;20222;-31
2022/04/20 08:05:41;;;;;;;3.70;3.30;;;;;;;11.47;44.61;98648.41;4175297;28;20290;-31
2022/04/20 08:07:44;;;;;;;3.87;3.43;;;;;;;10.79;45.89;98697.44;4193037;28;20637;-31
2022/04/20 08:09:45;;;;;;;4.93;3.30;;;;;;;10.50;45.70;98711.59;4183475;28;20224;-31
2022/04/20 08:11:47;;;;;;;5.33;3.33;;;;;;;10.48;46.40;98756.13;4193413;28;20651;-30
2022/04/20 08:16:09;;;;;;;6.87;3.40;;;;;;;10.90;47.73;98700.63;4188156;28;20238;-31
2022/04/20 08:18:12;;;;;;;3.90;3.17;;;;;;;11.16;45.88;98662.88;4192664;28;20235;-31
2022/04/20 08:20:14;;;;;;;5.63;2.87;;;;;;;11.80;44.42;98619.38;4188192;28;20239;-30
2022/04/20 08:22:16;;;;;;;3.40;2.60;;;;;;;11.86;45.59;98623.13;4189805;28;20236;-30
2022/04/20 08:24:17;;;;;;;4.57;2.90;;;;;;;11.61;43.24;98655.50;4188878;28;20227;-31
2022/04/20 08:26:19;;;;;;;4.40;3.20;;;;;;;11.06;44.24;98708.41;4193828;28;20292;-31
2022/04/20 08:28:21;;;;;;;4.83;3.67;;;;;;;10.90;45.98;98753.81;4191280;28;20227;-31
2022/04/20 08:30:23;;;;;;;4.67;3.37;;;;;;;11.06;44.90;98696.94;4185336;28;20262;-30
2022/04/20 08:32:24;;;;;;;4.83;3.30;;;;;;;11.78;43.69;98634.75;4184474;28;20760;-30
2022/04/20 08:34:26;;;;;;;4.87;3.47;;;;;;;10.93;44.95;98761.44;4185723;28;20223;-30
2022/04/20 08:36:48;;;;;;;3.67;3.03;;;;;;;11.27;44.14;98722.75;4193910;28;20247;-31
2022/04/20 08:38:49;;;;;;;6.13;2.93;;;;;;;11.68;43.42;98672.34;4185460;28;20243;-32
2022/04/20 08:40:54;;;;;;;4.40;3.03;;;;;;;11.85;44.92;98656.13;4191485;28;20285;-30
2022/04/20 08:43:00;;;;;;;4.63;3.37;;;;;;;11.81;43.60;98655.63;4182656;28;20314;-30
2022/04/20 08:45:03;;;;;;;3.97;3.20;;;;;;;11.69;44.24;98689.97;4194037;28;20243;-29
2022/04/20 08:47:07;;;;;;;3.57;3.20;;;;;;;11.60;43.41;98695.63;4185572;28;20250;-30
2022/04/20 08:49:09;;;;;;;4.83;3.47;;;;;;;11.27;44.35;98749.34;4189856;28;20235;-30
2022/04/20 08:51:11;;;;;;;4.70;3.10;;;;;;;11.92;43.77;98664.97;4191304;28;20246;-30
2022/04/20 08:53:16;;;;;;;7.13;3.27;;;;;;;10.30;45.09;98824.72;4190785;28;20231;-31
2022/04/20 08:55:18;;;;;;;3.97;3.10;;;;;;;11.34;44.78;98726.28;4186963;28;20724;-30
2022/04/20 08:57:21;;;;;;;5.00;3.20;;;;;;;11.60;43.97;98704.44;4165969;28;20225;-31
2022/04/20 08:59:24;;;;;;;4.13;3.40;;;;;;;11.96;43.74;98663.56;4183827;28;20234;-31
2022/04/20 09:01:29;;;;;;;3.33;2.87;;;;;;;11.25;44.14;98748.72;4185363;28;20234;-30
2022/04/20 09:03:33;;;;;;;3.97;3.20;;;;;;;12.06;43.18;98655.22;4184041;28;20232;-30
2022/04/20 09:05:36;;;;;;;5.70;3.73;;;;;;;12.00;43.44;98670.16;4182273;28;20865;-30
2022/04/20 09:07:38;;;;;;;4.20;3.23;;;;;;;12.28;43.72;98650.63;4180832;28;20224;-30
2022/04/20 09:09:41;;;;;;;6.53;3.30;;;;;;;12.48;43.55;98626.75;4191281;28;20239;-32
2022/04/20 09:11:43;;;;;;;4.70;2.87;;;;;;;11.98;44.20;98717.47;4188210;28;20245;-31
2022/04/20 09:13:47;;;;;;;4.53;3.83;;;;;;;12.60;42.71;98641.13;4187821;28;20227;-29
2022/04/20 09:15:50;;;;;;;3.43;3.07;;;;;;;11.75;44.16;98752.31;4193008;28;20314;-30
2022/04/20 09:17:52;;;;;;;4.87;3.10;;;;;;;11.88;43.90;98716.97;4192912;28;20261;-32
2022/04/20 09:19:56;;;;;;;8.07;3.40;;;;;;;10.71;44.35;98840.28;4190403;28;20277;-31
2022/04/20 09:21:58;;;;;;;3.93;2.80;;;;;;;11.15;43.79;98804.88;4191070;28;20250;-31
2022/04/20 09:24:10;;;;;;;4.37;3.00;;;;;;;11.47;43.16;98763.69;4189683;28;20235;-30
2022/04/20 09:26:15;;;;;;;4.90;2.83;;;;;;;11.55;43.34;98734.28;4167711;28;20235;-30
2022/04/20 09:28:17;;;;;;;3.57;3.00;;;;;;;12.42;40.84;98655.03;4194058;28;20227;-29
2022/04/20 09:30:19;;;;;;;4.03;3.07;;;;;;;12.25;42.29;98699.84;4193889;28;20231;-31
2022/04/20 09:32:39;;;;;;;3.37;2.90;;;;;;;12.30;42.87;98677.91;4193878;28;20227;-30
2022/04/20 09:34:56;;;;;;;2.67;2.43;;;;;;;11.67;43.08;98771.88;4193799;28;20219;-31
2022/04/20 09:36:58;;;;;;;4.43;3.03;;;;;;;12.58;41.44;98655.72;4193138;28;20318;-30
2022/04/20 09:39:04;;;;;;;5.50;3.63;;;;;;;12.44;41.99;98673.50;4185854;28;20235;-31
2022/04/20 09:41:11;;;;;;;5.63;3.30;;;;;;;11.85;40.68;98762.66;4192311;28;20234;-31
2022/04/20 09:43:19;;;;;;;4.47;3.20;;;;;;;12.61;41.99;98660.66;4183913;28;20231;-31
2022/04/20 09:45:21;;;;;;;4.47;3.23;;;;;;;12.97;40.76;98632.88;4171141;28;20227;-32
2022/04/20 09:49:55;;;;;;;4.30;3.10;;;;;;;12.75;42.87;98656.19;4184140;28;20223;-31
2022/04/20 09:52:08;;;;;;;3.10;2.70;;;;;;;13.03;42.17;98642.75;4175338;28;20269;-30
2022/04/20 09:54:27;;;;;;;4.97;3.20;;;;;;;12.75;42.59;98670.34;4181763;28;20816;-31
2022/04/20 09:56:29;;;;;;;5.83;3.07;;;;;;;13.28;41.97;98605.63;4179725;28;20232;-32
2022/04/20 09:58:34;;;;;;;4.60;3.23;;;;;;;13.19;41.17;98623.66;4189992;28;20230;-31
2022/04/20 10:00:40;;;;;;;7.70;3.20;;;;;;;12.61;42.58;98700.66;4193477;28;20227;-30
2022/04/20 10:02:52;;;;;;;3.30;3.00;;;;;;;13.00;42.89;98651.97;4185238;28;20231;-30
2022/04/20 10:04:55;;;;;;;3.83;2.97;;;;;;;13.91;40.46;98578.47;4176909;28;20239;-29